WetterOnline ( https://www.wetteronline.de )

Wetter aktuell Konstanz

Aktuelles Wetter: Konstanz (397m)

6-stündlich | Neueste Meldungen
Ortszeit Temperatur Wetter
Mo, 30.03. 8:00 0.6° C bedeckt
Mo, 30.03. 2:00 2.8° C Sprühregen
So, 29.03. 20:00 2.6° C leichter Regen
So, 29.03. 14:00 5.8° C leichter Regen
So, 29.03. 8:00 6.9° C bedeckt
So, 29.03. 1:00 7.7° C bewölkt
Sa, 28.03. 19:00 12.3° C wolkenlos
Sa, 28.03. 13:00 14.3° C wolkenlos
Ortszeit Temperatur Wetter
Mo, 30.03. 12:10 2.5° C bedeckt
Mo, 30.03. 12:00 1.9° C bedeckt
Mo, 30.03. 11:50 1.9° C bedeckt
Mo, 30.03. 11:40 2.0° C bewölkt
Mo, 30.03. 11:30 1.9° C bedeckt
Mo, 30.03. 11:20 1.9° C bedeckt
Mo, 30.03. 11:00 2.1° C bedeckt
Mo, 30.03. 10:30 1.7° C bedeckt
Mo, 30.03. 10:00 1.5° C bedeckt
Mo, 30.03. 9:30 1.1° C bedeckt
Mo, 30.03. 9:00 0.8° C bedeckt
Ortszeit Relative Feuchte Sichtweite
Mo, 30.03. 8:00 75% 70 km
Mo, 30.03. 2:00 82% 30 km
So, 29.03. 20:00 89% 7 km
So, 29.03. 14:00 76% 10 km
So, 29.03. 8:00 67% 16 km
So, 29.03. 1:00 76% 14 km
Sa, 28.03. 19:00 55% 19 km
Sa, 28.03. 13:00 48% 18 km
Ortszeit Relative Feuchte Sichtweite
Mo, 30.03. 12:10 65% -
Mo, 30.03. 12:00 65% 70 km
Mo, 30.03. 11:50 65% -
Mo, 30.03. 11:40 65% -
Mo, 30.03. 11:30 63% 65 km
Mo, 30.03. 11:20 63% -
Mo, 30.03. 11:00 63% 65 km
Mo, 30.03. 10:30 64% 70 km
Mo, 30.03. 10:00 71% 70 km
Mo, 30.03. 9:30 72% 70 km
Mo, 30.03. 9:00 75% 70 km
Ortszeit Niederschlagsmenge Niederschlagsart
Mo, 30.03. 8:00 3 l/m2 in 12 Std. Schnee, Regen
Mo, 30.03. 2:00 3 l/m2 in 6 Std. Regen
So, 29.03. 20:00 4 l/m2 in 12 Std. Regen
So, 29.03. 14:00 0.1 l/m2 in 6 Std. Regen
So, 29.03. 8:00 0.0 l/m2 in 12 Std. -
So, 29.03. 1:00 0.0 l/m2 in 6 Std. -
Sa, 28.03. 19:00 0.0 l/m2 in 12 Std. -
Sa, 28.03. 13:00 0.0 l/m2 in 6 Std. -
Ortszeit Niederschlagsmenge Niederschlagsart
Mo, 30.03. 12:10 keine Meldung -
Mo, 30.03. 12:00 0.0 l/m2 in 1 Std. -
Mo, 30.03. 11:50 keine Meldung -
Mo, 30.03. 11:40 keine Meldung -
Mo, 30.03. 11:30 0.0 l/m2 in 1 Std. -
Mo, 30.03. 11:20 keine Meldung -
Mo, 30.03. 11:00 0.0 l/m2 in 1 Std. -
Mo, 30.03. 10:30 0.0 l/m2 in 1 Std. -
Mo, 30.03. 10:00 0.0 l/m2 in 1 Std. -
Mo, 30.03. 9:30 0.0 l/m2 in 1 Std. -
Mo, 30.03. 9:00 0.0 l/m2 in 1 Std. -
Ortszeit Stärke Spitze Richtung
km/h Bft. km/h Grad Sektor
Mo, 30.03. 8:00 13 3 43 60° NO
Mo, 30.03. 2:00 18 3 36 50° NO
So, 29.03. 20:00 7 2 32 10° N
So, 29.03. 14:00 13 3 28 30° NO
So, 29.03. 8:00 6 1 15 30° NO
So, 29.03. 1:00 6 1 15 180° S
Sa, 28.03. 19:00 0 0 14 - -
Sa, 28.03. 13:00 7 2 11 170° S
Ortszeit Stärke Spitze Richtung
km/h Bft. km/h Grad Sektor
Mo, 30.03. 12:10 18 3 - 40° NO
Mo, 30.03. 12:00 17 3 43 40° NO
Mo, 30.03. 11:50 17 3 - 40° NO
Mo, 30.03. 11:40 19 3 - 60° NO
Mo, 30.03. 11:30 22 4 43 60° NO
Mo, 30.03. 11:20 22 4 - 60° NO
Mo, 30.03. 11:00 18 3 43 50° NO
Mo, 30.03. 10:30 22 4 43 60° NO
Mo, 30.03. 10:00 18 3 43 60° NO
Mo, 30.03. 9:30 17 3 33 50° NO
Mo, 30.03. 9:00 17 3 35 60° NO
Ortszeit Untergrenze Bedeckung Gattung
total tief tief mittel hoch
Mo, 30.03. 8:00 600 m 8/8 8/8 - - -
Mo, 30.03. 2:00 540 m 8/8 8/8 - - -
So, 29.03. 20:00 360 m 8/8 8/8 - - -
So, 29.03. 14:00 720 m 7/8 7/8 - - -
So, 29.03. 8:00 1800 m 8/8 8/8 - - -
So, 29.03. 1:00 2400 m 7/8 7/8 - - -
Sa, 28.03. 19:00 - 0/8 0/8 - - -
Sa, 28.03. 13:00 - 0/8 0/8 - - -
Ortszeit Bedeckungsgrad in Achtel und Wolkenuntergrenze
Mo, 30.03. 12:10 8(780m) 8(3000m) 8(4200m)
Mo, 30.03. 12:00 8(810m)
Mo, 30.03. 11:50 8(810m)
Mo, 30.03. 11:40 7(810m)
Mo, 30.03. 11:30 7(840m) 8(1500m) 8(3000m)
Mo, 30.03. 11:20 7(840m) 8(1500m) 8(3000m)
Mo, 30.03. 11:00 6(900m) 8(1500m) 8(2700m)
Mo, 30.03. 10:30 4(780m) 8(2700m) 8(3600m)
Mo, 30.03. 10:00 7(660m) 8(1800m) 8(3000m)
Mo, 30.03. 9:30 7(600m) 8(810m) 8(1800m)
Mo, 30.03. 9:00 8(600m)
Ortszeit Luftdruck NN (hPa) Tendenz (hPa in 3 Std.)
Mo, 30.03. 8:00 1025 + 0,7
Mo, 30.03. 2:00 1024 + 0,6
So, 29.03. 20:00 1022 + 1,2
So, 29.03. 14:00 1019 + 0,3
So, 29.03. 8:00 1018 + 0,5
So, 29.03. 1:00 1017 - 0,1
Sa, 28.03. 19:00 1015 + 0,2
Sa, 28.03. 13:00 1016 - 0,8
Ortszeit Luftdruck NN (hPa) Tendenz (hPa in 3 Std.)
Mo, 30.03. 12:10 1025 keine Meldung
Mo, 30.03. 12:00 1025 + 0,6
Mo, 30.03. 11:50 1025 keine Meldung
Mo, 30.03. 11:40 1025 keine Meldung
Mo, 30.03. 11:30 1025 + 0,7
Mo, 30.03. 11:20 1025 keine Meldung
Mo, 30.03. 11:00 1025 + 0,9
Mo, 30.03. 10:30 1025 + 1,1
Mo, 30.03. 10:00 1025 + 0,9
Mo, 30.03. 9:30 1025 + 0,8
Mo, 30.03. 9:00 1025 + 0,8
Ortszeit Schneehöhe (cm)
Mo, 30.03. 8:00 0
Mo, 30.03. 2:00 0
So, 29.03. 20:00 0
So, 29.03. 14:00 0
So, 29.03. 8:00 0
So, 29.03. 1:00 0
Sa, 28.03. 19:00 0
Sa, 28.03. 13:00 0
Ortszeit Schneehöhe (cm)
Mo, 30.03. 12:10 0
Mo, 30.03. 12:00 0
Mo, 30.03. 11:50 0
Mo, 30.03. 11:40 0
Mo, 30.03. 11:30 0
Mo, 30.03. 11:20 0
Mo, 30.03. 11:00 0
Mo, 30.03. 10:30 0
Mo, 30.03. 10:00 0
Mo, 30.03. 9:30 0
Mo, 30.03. 9:00 0
Link zu dieser Seite / Seite empfehlen

Das Wetter in ...